createdAt,value
2018-05-21T00:01:54.244Z,16.26
2018-05-21T00:04:20.713Z,16.37
2018-05-21T00:06:47.081Z,16.36
2018-05-21T00:09:14.669Z,16.37
2018-05-21T00:11:41.303Z,16.43
2018-05-21T00:14:07.711Z,16.47
2018-05-21T00:16:34.850Z,16.47
2018-05-21T00:19:02.019Z,16.45
2018-05-21T00:21:29.229Z,16.44
2018-05-21T00:23:55.761Z,16.45
2018-05-21T00:26:22.216Z,16.43
2018-05-21T00:28:50.322Z,16.40
2018-05-21T00:31:16.927Z,16.39
2018-05-21T00:33:43.405Z,16.34
2018-05-21T00:36:09.803Z,16.36
2018-05-21T00:38:36.338Z,16.38
2018-05-21T00:41:03.469Z,16.34
2018-05-21T00:43:30.149Z,16.29
2018-05-21T00:45:56.529Z,16.23
2018-05-21T00:48:22.930Z,16.22
2018-05-21T00:50:49.374Z,16.19
2018-05-21T00:53:15.754Z,16.14
2018-05-21T00:55:42.904Z,16.08
2018-05-21T00:58:09.321Z,16.01
2018-05-21T01:00:35.701Z,15.93
2018-05-21T01:03:02.083Z,15.90
2018-05-21T01:05:29.213Z,15.80
2018-05-21T01:07:55.622Z,15.72
2018-05-21T01:10:21.985Z,15.66
2018-05-21T01:12:48.467Z,15.63
2018-05-21T01:15:14.891Z,15.60
2018-05-21T01:17:42.039Z,15.58
2018-05-21T01:20:09.220Z,15.56
2018-05-21T01:22:35.627Z,15.51
2018-05-21T01:25:02.793Z,15.46
2018-05-21T01:27:29.236Z,15.53
2018-05-21T01:29:55.587Z,15.49
2018-05-21T01:32:22.007Z,15.43
2018-05-21T01:34:48.402Z,15.38
2018-05-21T01:37:15.597Z,15.38
2018-05-21T01:39:42.035Z,15.35
2018-05-21T01:42:08.452Z,15.31
2018-05-21T01:44:34.865Z,15.32
2018-05-21T01:47:01.616Z,15.25
2018-05-21T01:49:27.990Z,15.24
2018-05-21T01:51:54.475Z,15.25
2018-05-21T01:54:21.012Z,15.21
2018-05-21T01:56:47.400Z,15.18
2018-05-21T01:59:13.802Z,15.13
2018-05-21T02:01:40.243Z,15.13
2018-05-21T02:04:08.275Z,15.11
2018-05-21T02:06:36.670Z,15.16
2018-05-21T02:09:07.317Z,15.15
2018-05-21T02:11:33.773Z,15.17
2018-05-21T02:14:00.195Z,15.15
2018-05-21T02:16:26.637Z,15.12
2018-05-21T02:18:53.050Z,15.09
2018-05-21T02:21:19.476Z,15.02
2018-05-21T02:23:46.130Z,15.02
2018-05-21T02:26:12.501Z,14.92
2018-05-21T02:28:39.709Z,14.84
2018-05-21T02:31:06.265Z,14.82
2018-05-21T02:33:32.753Z,14.74
2018-05-21T02:35:59.243Z,14.69
2018-05-21T02:38:26.406Z,14.61
2018-05-21T02:40:53.010Z,14.60
2018-05-21T02:43:19.422Z,14.69
2018-05-21T02:45:45.878Z,14.69
2018-05-21T02:48:12.684Z,14.68
2018-05-21T02:50:39.140Z,14.75
2018-05-21T02:53:05.714Z,14.74
2018-05-21T02:55:32.113Z,14.67
2018-05-21T02:57:58.503Z,14.61
2018-05-21T03:00:24.919Z,14.56
2018-05-21T03:02:51.557Z,14.54
2018-05-21T03:05:18.785Z,14.50
2018-05-21T03:07:45.128Z,14.45
2018-05-21T03:10:12.987Z,14.41
2018-05-21T03:12:39.424Z,14.35
2018-05-21T03:15:06.573Z,14.29
2018-05-21T03:17:33.610Z,14.29
2018-05-21T03:20:00.051Z,14.28
2018-05-21T03:22:26.455Z,14.26
2018-05-21T03:24:52.860Z,14.23
2018-05-21T03:27:19.234Z,14.23
2018-05-21T03:29:45.663Z,14.20
2018-05-21T03:32:12.084Z,14.16
2018-05-21T03:34:38.554Z,14.08
2018-05-21T03:37:05.231Z,14.02
2018-05-21T03:39:31.612Z,13.95
2018-05-21T03:41:58.042Z,13.94
2018-05-21T03:44:24.472Z,13.92
2018-05-21T03:46:51.271Z,13.92
2018-05-21T03:49:17.903Z,13.92
2018-05-21T03:51:44.438Z,13.92
2018-05-21T03:54:11.068Z,13.91
2018-05-21T03:56:37.465Z,13.91
2018-05-21T03:59:22.606Z,13.94
2018-05-21T04:02:08.136Z,13.94
2018-05-21T04:04:34.607Z,13.98
2018-05-21T04:07:00.982Z,14.01
2018-05-21T04:09:27.434Z,14.07
2018-05-21T04:11:53.894Z,14.11
2018-05-21T04:14:20.257Z,14.16
2018-05-21T04:16:46.624Z,14.25
2018-05-21T04:19:13.782Z,14.39
2018-05-21T04:21:40.907Z,14.44
2018-05-21T04:24:07.500Z,14.49
2018-05-21T04:26:34.729Z,14.54
2018-05-21T04:29:01.954Z,14.60
2018-05-21T04:31:28.340Z,14.68
2018-05-21T04:33:55.155Z,14.78
2018-05-21T04:36:22.385Z,14.84
2018-05-21T04:38:48.765Z,14.91
2018-05-21T04:41:15.343Z,14.97
2018-05-21T04:43:41.764Z,15.02
2018-05-21T04:46:08.557Z,15.12
2018-05-21T04:48:35.704Z,15.17
2018-05-21T04:51:02.880Z,15.23
2018-05-21T04:53:29.320Z,15.36
2018-05-21T04:55:55.687Z,15.50
2018-05-21T04:58:22.363Z,15.59
2018-05-21T05:00:48.816Z,15.67
2018-05-21T05:03:15.214Z,15.74
2018-05-21T05:05:42.367Z,15.80
2018-05-21T05:08:09.541Z,15.86
2018-05-21T05:10:36.268Z,15.89
2018-05-21T05:13:02.679Z,15.99
2018-05-21T05:15:29.782Z,16.08
2018-05-21T05:17:56.216Z,16.29
2018-05-21T05:20:22.579Z,16.38
2018-05-21T05:22:50.446Z,16.35
2018-05-21T05:25:16.846Z,16.51
2018-05-21T05:27:43.199Z,16.67
2018-05-21T05:30:09.896Z,16.83
2018-05-21T05:32:36.524Z,17.01
2018-05-21T05:35:03.725Z,17.07
2018-05-21T05:37:30.149Z,17.25
2018-05-21T05:39:56.548Z,17.29
2018-05-21T05:42:22.939Z,17.31
2018-05-21T05:44:49.321Z,17.43
2018-05-21T05:47:15.744Z,17.60
2018-05-21T05:49:42.149Z,17.69
2018-05-21T05:52:09.310Z,17.69
2018-05-21T05:54:35.729Z,17.74
2018-05-21T05:57:02.908Z,17.99
2018-05-21T05:59:29.312Z,18.05
2018-05-21T06:01:56.495Z,17.92
2018-05-21T06:04:23.131Z,18.02
2018-05-21T06:06:49.535Z,18.07
2018-05-21T06:09:16.634Z,18.19
2018-05-21T06:11:43.046Z,18.10
2018-05-21T06:14:09.672Z,18.26
2018-05-21T06:16:36.323Z,18.48
2018-05-21T06:19:02.726Z,18.50
2018-05-21T06:21:29.936Z,18.50
2018-05-21T06:23:56.273Z,18.58
2018-05-21T06:26:22.657Z,18.81
2018-05-21T06:28:49.012Z,18.83
2018-05-21T06:31:15.459Z,18.74
2018-05-21T06:33:41.865Z,18.60
2018-05-21T06:36:08.295Z,18.91
2018-05-21T06:38:34.808Z,19.16
2018-05-21T06:41:01.981Z,19.22
2018-05-21T06:43:28.394Z,19.02
2018-05-21T06:45:55.760Z,19.12
2018-05-21T06:48:22.368Z,19.24
2018-05-21T06:50:48.740Z,19.42
2018-05-21T06:53:15.177Z,19.70
2018-05-21T06:55:41.555Z,19.57
2018-05-21T06:58:07.998Z,19.46
2018-05-21T07:00:34.490Z,19.67
2018-05-21T07:03:00.867Z,19.95
2018-05-21T07:05:27.287Z,19.61
2018-05-21T07:07:53.757Z,19.77
2018-05-21T07:10:20.875Z,20.03
2018-05-21T07:12:48.042Z,20.05
2018-05-21T07:15:15.196Z,19.94
2018-05-21T07:17:42.319Z,20.33
2018-05-21T07:20:08.735Z,19.99
2018-05-21T07:22:35.106Z,19.73
2018-05-21T07:25:02.248Z,20.34
2018-05-21T07:27:28.790Z,20.61
2018-05-21T07:29:55.942Z,20.67
2018-05-21T07:32:23.058Z,20.58
2018-05-21T07:34:49.493Z,20.54
2018-05-21T07:37:15.931Z,20.69
2018-05-21T07:39:42.324Z,21.06
2018-05-21T07:42:08.748Z,21.08
2018-05-21T07:44:35.123Z,21.28
2018-05-21T07:47:01.511Z,20.97
2018-05-21T07:49:27.893Z,21.24
2018-05-21T07:51:54.993Z,21.12
2018-05-21T07:54:21.434Z,21.47
2018-05-21T07:56:47.876Z,21.65
2018-05-21T07:59:14.276Z,21.49
2018-05-21T08:01:41.490Z,21.88
2018-05-21T08:04:07.874Z,22.17
2018-05-21T08:06:34.311Z,21.78
2018-05-21T08:09:00.843Z,21.86
2018-05-21T08:11:27.216Z,21.91
2018-05-21T08:13:53.612Z,21.60
2018-05-21T08:16:20.081Z,21.52
2018-05-21T08:18:46.493Z,21.48
2018-05-21T08:21:12.957Z,21.66
2018-05-21T08:23:39.629Z,21.68
2018-05-21T08:26:06.785Z,21.83
2018-05-21T08:28:33.275Z,22.39
2018-05-21T08:30:59.738Z,22.42
2018-05-21T08:33:26.893Z,22.01
2018-05-21T08:35:54.067Z,22.35
2018-05-21T08:38:20.474Z,22.48
2018-05-21T08:40:47.595Z,22.40
2018-05-21T08:43:14.076Z,22.43
2018-05-21T08:45:40.498Z,22.66
2018-05-21T08:48:07.747Z,22.78
2018-05-21T08:50:34.911Z,22.47
2018-05-21T08:53:01.387Z,22.60
2018-05-21T08:55:27.795Z,22.35
2018-05-21T08:57:54.296Z,22.84
2018-05-21T09:00:21.542Z,22.62
2018-05-21T09:02:47.897Z,22.86
2018-05-21T09:05:14.641Z,22.70
2018-05-21T09:07:41.079Z,22.99
2018-05-21T09:10:07.865Z,23.13
2018-05-21T09:12:34.326Z,22.56
2018-05-21T09:15:00.779Z,22.44
2018-05-21T09:17:27.209Z,22.62
2018-05-21T09:19:53.601Z,22.95
2018-05-21T09:22:20.000Z,23.70
2018-05-21T09:24:46.382Z,23.54
2018-05-21T09:27:13.582Z,23.45
2018-05-21T09:29:40.034Z,22.99
2018-05-21T09:32:06.422Z,23.65
2018-05-21T09:34:32.888Z,23.93
2018-05-21T09:37:00.550Z,23.23
2018-05-21T09:39:27.450Z,23.44
2018-05-21T09:41:53.958Z,23.43
2018-05-21T09:44:20.541Z,23.85
2018-05-21T09:46:46.929Z,24.07
2018-05-21T09:49:13.346Z,24.03
2018-05-21T09:51:39.734Z,24.37
2018-05-21T09:54:06.117Z,24.52
2018-05-21T09:56:32.514Z,24.08
2018-05-21T09:58:58.861Z,24.42
2018-05-21T10:01:25.287Z,24.91
2018-05-21T10:03:51.927Z,25.04
2018-05-21T10:06:18.377Z,25.19
2018-05-21T10:08:45.083Z,24.80
2018-05-21T10:11:11.502Z,25.52
2018-05-21T10:13:38.288Z,24.84
2018-05-21T10:16:04.684Z,25.18
2018-05-21T10:18:31.732Z,25.10
2018-05-21T10:20:58.553Z,25.43
2018-05-21T10:23:25.684Z,25.77
2018-05-21T10:25:52.826Z,25.48
2018-05-21T10:28:19.232Z,26.48
2018-05-21T10:30:45.602Z,26.38
2018-05-21T10:33:12.760Z,26.04
2018-05-21T10:35:39.935Z,26.39
2018-05-21T10:38:06.331Z,26.53
2018-05-21T10:40:32.721Z,26.47
2018-05-21T10:42:59.122Z,25.88
2018-05-21T10:45:25.651Z,25.76
2018-05-21T10:47:52.013Z,26.07
2018-05-21T10:50:18.424Z,26.01
2018-05-21T10:52:44.833Z,25.05
2018-05-21T10:55:11.950Z,25.02
2018-05-21T10:57:38.675Z,25.35
2018-05-21T11:00:05.274Z,25.47
2018-05-21T11:02:32.404Z,25.90
2018-05-21T11:04:59.573Z,25.37
2018-05-21T11:07:26.922Z,26.46
2018-05-21T11:09:54.150Z,26.58
2018-05-21T11:12:20.526Z,26.37
2018-05-21T11:14:46.989Z,27.26
2018-05-21T11:17:13.351Z,27.10
2018-05-21T11:19:39.788Z,27.53
2018-05-21T11:22:06.285Z,27.27
2018-05-21T11:24:32.661Z,26.87
2018-05-21T11:26:59.808Z,27.01
2018-05-21T11:29:26.969Z,27.05
2018-05-21T11:31:54.342Z,27.41
2018-05-21T11:34:20.756Z,27.87
2018-05-21T11:36:47.866Z,27.46
2018-05-21T11:39:14.549Z,27.49
2018-05-21T11:41:40.966Z,27.66
2018-05-21T11:44:08.107Z,27.74
2018-05-21T11:46:34.490Z,27.07
2018-05-21T11:49:00.945Z,27.31
2018-05-21T11:51:27.471Z,27.22
2018-05-21T11:53:53.833Z,27.73
2018-05-21T11:56:20.300Z,27.73
2018-05-21T11:58:46.739Z,28.10
2018-05-21T12:01:13.866Z,28.36
2018-05-21T12:03:41.047Z,28.80
2018-05-21T12:06:07.493Z,28.91
2018-05-21T12:08:33.934Z,28.39
2018-05-21T12:11:00.397Z,27.75
2018-05-21T12:13:26.883Z,28.23
2018-05-21T12:15:53.285Z,27.98
2018-05-21T12:18:20.405Z,28.25
2018-05-21T12:20:46.810Z,28.82
2018-05-21T12:23:13.173Z,28.55
2018-05-21T12:25:39.598Z,27.91
2018-05-21T12:28:06.056Z,27.73
2018-05-21T12:30:33.195Z,28.75
2018-05-21T12:32:59.688Z,29.35
2018-05-21T12:35:26.057Z,28.94
2018-05-21T12:37:53.224Z,29.02
2018-05-21T12:40:20.406Z,29.39
2018-05-21T12:42:46.892Z,29.07
2018-05-21T12:45:13.318Z,29.44
2018-05-21T12:47:40.220Z,29.48
2018-05-21T12:50:07.720Z,30.15
2018-05-21T12:52:34.122Z,30.37
2018-05-21T12:55:00.482Z,30.20
2018-05-21T12:57:27.002Z,30.59
2018-05-21T12:59:53.436Z,30.49
2018-05-21T13:02:20.129Z,30.64
2018-05-21T13:04:47.290Z,30.47
2018-05-21T13:07:13.766Z,30.71
2018-05-21T13:09:40.321Z,31.07
2018-05-21T13:12:06.784Z,30.68
2018-05-21T13:14:33.293Z,30.83
2018-05-21T13:16:59.710Z,31.93
2018-05-21T13:19:26.494Z,32.67
2018-05-21T13:21:53.710Z,33.55
2018-05-21T13:24:20.147Z,34.65
2018-05-21T13:26:48.680Z,34.58
2018-05-21T13:29:15.158Z,35.76
2018-05-21T13:31:41.726Z,36.47
2018-05-21T13:34:08.305Z,37.49
2018-05-21T13:36:34.741Z,37.49
2018-05-21T13:39:01.557Z,36.75
2018-05-21T13:41:28.028Z,37.22
2018-05-21T13:43:54.681Z,38.86
2018-05-21T13:46:22.123Z,37.77
2018-05-21T13:48:48.557Z,38.82
2018-05-21T13:51:14.921Z,38.14
2018-05-21T13:53:42.248Z,38.91
2018-05-21T13:56:08.796Z,39.37
2018-05-21T13:58:35.263Z,38.94
2018-05-21T14:01:01.613Z,38.17
2018-05-21T14:03:27.978Z,35.98
2018-05-21T14:05:54.589Z,36.85
2018-05-21T14:08:21.167Z,34.30
2018-05-21T14:10:47.655Z,32.54
2018-05-21T14:13:14.047Z,33.33
2018-05-21T14:15:41.198Z,33.56
2018-05-21T14:18:08.318Z,34.04
2018-05-21T14:20:34.851Z,35.16
2018-05-21T14:23:01.614Z,34.64
2018-05-21T14:25:28.865Z,35.18
2018-05-21T14:27:55.975Z,36.04
2018-05-21T14:30:22.428Z,37.34
2018-05-21T14:32:48.841Z,38.66
2018-05-21T14:35:15.372Z,39.24
2018-05-21T14:37:41.766Z,40.03
2018-05-21T14:40:08.920Z,40.78
2018-05-21T14:42:36.215Z,39.74
2018-05-21T14:45:02.663Z,39.39
2018-05-21T14:47:29.136Z,39.83
2018-05-21T14:49:56.634Z,39.83
2018-05-21T14:52:23.010Z,39.47
2018-05-21T14:54:49.777Z,38.00
2018-05-21T14:57:16.242Z,35.90
2018-05-21T14:59:42.618Z,35.04
2018-05-21T15:02:09.185Z,35.15
2018-05-21T15:04:35.510Z,34.36
2018-05-21T15:07:02.033Z,33.92
2018-05-21T15:09:29.191Z,33.82
2018-05-21T15:11:56.305Z,32.93
2018-05-21T15:14:23.369Z,31.96
2018-05-21T15:16:51.546Z,30.30
2018-05-21T15:19:18.757Z,29.50
2018-05-21T15:21:45.224Z,29.06
2018-05-21T15:24:12.706Z,27.93
2018-05-21T15:26:39.075Z,27.61
2018-05-21T15:29:05.479Z,27.28
2018-05-21T15:31:31.967Z,26.69
2018-05-21T15:33:58.434Z,26.40
2018-05-21T15:36:26.331Z,26.19
2018-05-21T15:38:52.995Z,26.10
2018-05-21T15:41:19.486Z,26.03
2018-05-21T15:43:45.921Z,25.95
2018-05-21T15:46:12.387Z,25.62
2018-05-21T15:48:38.826Z,25.55
2018-05-21T15:51:05.318Z,25.61
2018-05-21T15:53:31.753Z,25.82
2018-05-21T15:55:58.202Z,25.85
2018-05-21T15:58:24.694Z,26.00
2018-05-21T16:00:51.938Z,25.52
2018-05-21T16:03:18.530Z,25.89
2018-05-21T16:05:44.995Z,25.85
2018-05-21T16:08:11.382Z,25.78
2018-05-21T16:10:37.846Z,25.88
2018-05-21T16:13:05.250Z,25.82
2018-05-21T16:15:31.752Z,26.09
2018-05-21T16:17:58.249Z,26.06
2018-05-21T16:20:24.597Z,26.30
2018-05-21T16:22:51.047Z,26.37
2018-05-21T16:25:17.539Z,26.75
2018-05-21T16:27:44.071Z,27.06
2018-05-21T16:30:10.623Z,26.77
2018-05-21T16:32:36.986Z,27.21
2018-05-21T16:35:03.544Z,27.21
2018-05-21T16:37:30.691Z,26.91
2018-05-21T16:39:57.927Z,26.87
2018-05-21T16:42:24.412Z,27.41
2018-05-21T16:44:50.883Z,27.94
2018-05-21T16:47:17.291Z,28.93
2018-05-21T16:49:43.673Z,29.76
2018-05-21T16:52:11.214Z,30.95
2018-05-21T16:54:37.752Z,31.59
2018-05-21T16:57:04.237Z,32.54
2018-05-21T16:59:30.639Z,33.27
2018-05-21T17:01:57.907Z,33.81
2018-05-21T17:04:25.286Z,33.53
2018-05-21T17:06:51.782Z,34.47
2018-05-21T17:09:19.288Z,35.43
2018-05-21T17:11:45.870Z,36.40
2018-05-21T17:14:13.269Z,36.54
2018-05-21T17:16:39.763Z,36.08
2018-05-21T17:19:07.122Z,34.59
2018-05-21T17:21:34.373Z,34.14
2018-05-21T17:24:02.556Z,34.38
2018-05-21T17:26:29.760Z,34.78
2018-05-21T17:28:56.129Z,33.82
2018-05-21T17:31:23.278Z,33.61
2018-05-21T17:33:50.404Z,34.74
2018-05-21T17:36:16.880Z,34.55
2018-05-21T17:38:43.288Z,34.68
2018-05-21T17:41:10.443Z,34.38
2018-05-21T17:43:37.586Z,35.30
2018-05-21T17:46:04.776Z,35.53
2018-05-21T17:48:31.221Z,35.57
2018-05-21T17:50:57.789Z,34.42
2018-05-21T17:53:24.481Z,32.71
2018-05-21T17:55:51.353Z,30.63
2018-05-21T17:58:18.099Z,29.45
2018-05-21T18:00:45.917Z,28.49
2018-05-21T18:03:12.680Z,28.19
2018-05-21T18:05:39.689Z,27.92
2018-05-21T18:08:08.788Z,27.58
2018-05-21T18:10:35.562Z,27.28
2018-05-21T18:13:02.060Z,27.19
2018-05-21T18:15:29.233Z,27.35
2018-05-21T18:17:55.868Z,27.28
2018-05-21T18:20:22.298Z,27.06
2018-05-21T18:22:48.931Z,26.70
2018-05-21T18:25:16.067Z,26.35
2018-05-21T18:27:43.267Z,26.08
2018-05-21T18:30:09.779Z,25.67
2018-05-21T18:32:36.329Z,25.51
2018-05-21T18:35:02.846Z,25.39
2018-05-21T18:37:29.594Z,25.22
2018-05-21T18:39:56.057Z,24.89
2018-05-21T18:42:22.846Z,24.70
2018-05-21T18:44:49.447Z,24.56
2018-05-21T18:47:16.640Z,24.39
2018-05-21T18:49:44.015Z,24.20
2018-05-21T18:52:10.567Z,24.05
2018-05-21T18:54:37.098Z,23.54
2018-05-21T18:57:03.810Z,23.41
2018-05-21T18:59:31.317Z,23.04
2018-05-21T19:01:57.770Z,22.83
2018-05-21T19:04:24.460Z,22.53
2018-05-21T19:06:51.307Z,22.43
2018-05-21T19:09:17.745Z,22.11
2018-05-21T19:11:45.382Z,21.89
2018-05-21T19:14:11.917Z,21.79
2018-05-21T19:16:38.487Z,21.64
2018-05-21T19:19:04.967Z,21.65
2018-05-21T19:21:32.144Z,21.48
2018-05-21T19:23:59.266Z,21.39
2018-05-21T19:26:25.961Z,21.22
2018-05-21T19:28:52.473Z,21.03
2018-05-21T19:31:19.052Z,20.91
2018-05-21T19:33:45.879Z,20.60
2018-05-21T19:36:12.713Z,20.65
2018-05-21T19:38:39.142Z,20.38
2018-05-21T19:41:06.195Z,20.47
2018-05-21T19:43:32.597Z,20.31
2018-05-21T19:45:59.097Z,20.26
2018-05-21T19:48:26.387Z,19.94
2018-05-21T19:50:52.860Z,19.95
2018-05-21T19:53:20.491Z,19.95
2018-05-21T19:55:47.935Z,19.84
2018-05-21T19:58:15.471Z,19.76
2018-05-21T20:00:42.838Z,19.67
2018-05-21T20:03:09.240Z,19.64
2018-05-21T20:05:36.709Z,19.52
2018-05-21T20:08:04.693Z,19.51
2018-05-21T20:10:31.544Z,19.41
2018-05-21T20:12:58.038Z,19.30
2018-05-21T20:15:24.746Z,19.17
2018-05-21T20:17:51.284Z,19.13
2018-05-21T20:20:17.921Z,19.11
2018-05-21T20:22:44.626Z,19.06
2018-05-21T20:25:11.012Z,18.80
2018-05-21T20:27:37.526Z,18.85
2018-05-21T20:30:03.980Z,18.77
2018-05-21T20:32:30.498Z,18.79
2018-05-21T20:34:57.196Z,18.72
2018-05-21T20:37:23.763Z,18.74
2018-05-21T20:39:50.229Z,18.74
2018-05-21T20:42:16.687Z,18.75
2018-05-21T20:44:43.087Z,18.83
2018-05-21T20:47:10.909Z,18.86
2018-05-21T20:49:37.386Z,18.89
2018-05-21T20:52:03.754Z,18.92
2018-05-21T20:54:30.979Z,18.93
2018-05-21T20:56:57.389Z,19.04
2018-05-21T20:59:25.736Z,18.91
2018-05-21T21:01:53.657Z,18.83
2018-05-21T21:04:22.183Z,18.82
2018-05-21T21:06:50.309Z,18.83
2018-05-21T21:09:18.190Z,18.81
2018-05-21T21:11:45.763Z,18.91
2018-05-21T21:14:12.910Z,18.78
2018-05-21T21:16:40.104Z,18.60
2018-05-21T21:19:06.510Z,18.79
2018-05-21T21:21:32.880Z,19.01
2018-05-21T21:23:59.303Z,19.12
2018-05-21T21:26:25.982Z,19.25
2018-05-21T21:28:53.152Z,19.34
2018-05-21T21:31:20.304Z,19.35
2018-05-21T21:33:47.564Z,19.31
2018-05-21T21:36:13.949Z,19.32
2018-05-21T21:38:40.396Z,19.29
2018-05-21T21:41:07.061Z,19.42
2018-05-21T21:43:34.208Z,19.37
2018-05-21T21:46:01.354Z,19.27
2018-05-21T21:48:28.494Z,19.28
2018-05-21T21:50:55.697Z,19.33
2018-05-21T21:53:22.198Z,19.28
2018-05-21T21:55:48.691Z,19.12
2018-05-21T21:58:15.081Z,19.06
2018-05-21T22:00:41.531Z,18.89
2018-05-21T22:03:08.716Z,18.80
2018-05-21T22:05:35.193Z,18.76
2018-05-21T22:08:01.649Z,18.54
2018-05-21T22:10:28.187Z,18.47
2018-05-21T22:12:54.646Z,18.40
2018-05-21T22:15:21.084Z,18.37
2018-05-21T22:17:47.540Z,18.40
2018-05-21T22:20:13.984Z,18.25
2018-05-21T22:22:41.444Z,18.09
2018-05-21T22:25:14.718Z,18.13
2018-05-21T22:27:42.084Z,18.07
2018-05-21T22:30:09.402Z,17.98
2018-05-21T22:32:35.963Z,17.98
2018-05-21T22:35:03.220Z,17.78
2018-05-21T22:37:29.757Z,17.71
2018-05-21T22:39:57.083Z,17.82
2018-05-21T22:42:27.341Z,17.90
2018-05-21T22:44:53.746Z,17.93
2018-05-21T22:47:20.167Z,17.83
2018-05-21T22:49:46.752Z,17.90
2018-05-21T22:52:13.348Z,17.79
2018-05-21T22:54:39.766Z,17.88
2018-05-21T22:57:06.151Z,17.93
2018-05-21T22:59:32.522Z,17.77
2018-05-21T23:01:58.963Z,17.64
2018-05-21T23:04:25.388Z,17.62
2018-05-21T23:06:53.265Z,17.70
2018-05-21T23:09:19.661Z,17.70
2018-05-21T23:11:46.133Z,17.62
2018-05-21T23:14:13.391Z,17.56
2018-05-21T23:16:39.756Z,17.57
2018-05-21T23:19:06.151Z,17.47
2018-05-21T23:21:32.602Z,17.52
2018-05-21T23:23:59.218Z,17.48
2018-05-21T23:26:25.606Z,17.25
2018-05-21T23:28:52.455Z,17.11
2018-05-21T23:31:20.163Z,17.03
2018-05-21T23:33:47.665Z,16.94
2018-05-21T23:36:14.310Z,16.83
2018-05-21T23:38:40.722Z,16.88
2018-05-21T23:41:07.198Z,16.82
2018-05-21T23:43:33.660Z,16.77
2018-05-21T23:46:00.834Z,16.68
2018-05-21T23:48:28.080Z,16.63
2018-05-21T23:50:55.355Z,16.59
2018-05-21T23:53:21.856Z,16.63
2018-05-21T23:55:48.359Z,16.64
2018-05-21T23:58:14.860Z,16.47
